createdAt,value
2018-01-12T00:00:55.800Z,77.52
2018-01-12T00:03:24.277Z,77.63
2018-01-12T00:05:52.564Z,77.75
2018-01-12T00:08:20.834Z,77.79
2018-01-12T00:10:49.139Z,78.13
2018-01-12T00:13:17.411Z,78.32
2018-01-12T00:15:45.722Z,78.97
2018-01-12T00:18:14.042Z,79.46
2018-01-12T00:20:42.321Z,79.96
2018-01-12T00:23:10.592Z,79.80
2018-01-12T00:25:38.902Z,79.50
2018-01-12T00:28:07.172Z,79.08
2018-01-12T00:30:35.796Z,78.43
2018-01-12T00:33:04.077Z,78.27
2018-01-12T00:35:32.388Z,78.44
2018-01-12T00:38:00.676Z,78.55
2018-01-12T00:40:28.988Z,78.68
2018-01-12T00:42:57.297Z,78.45
2018-01-12T00:45:25.563Z,78.28
2018-01-12T00:47:53.883Z,78.11
2018-01-12T00:50:22.159Z,78.08
2018-01-12T00:52:50.549Z,77.87
2018-01-12T00:55:18.830Z,77.88
2018-01-12T00:57:47.131Z,78.45
2018-01-12T01:00:15.401Z,79.04
2018-01-12T01:02:43.719Z,78.67
2018-01-12T01:05:11.984Z,78.56
2018-01-12T01:07:40.298Z,78.46
2018-01-12T01:10:08.564Z,78.34
2018-01-12T01:12:36.852Z,78.28
2018-01-12T01:15:05.131Z,78.18
2018-01-12T01:17:33.484Z,78.11
2018-01-12T01:20:01.765Z,78.18
2018-01-12T01:22:30.075Z,78.09
2018-01-12T01:24:58.374Z,78.24
2018-01-12T01:27:26.672Z,78.26
2018-01-12T01:29:54.974Z,78.07
2018-01-12T01:32:23.248Z,78.00
2018-01-12T01:34:51.567Z,77.94
2018-01-12T01:37:19.843Z,77.77
2018-01-12T01:39:48.134Z,77.62
2018-01-12T01:42:16.439Z,77.93
2018-01-12T01:44:44.728Z,78.03
2018-01-12T01:47:13.004Z,78.27
2018-01-12T01:49:41.308Z,78.11
2018-01-12T01:52:09.584Z,77.99
2018-01-12T01:54:37.895Z,77.96
2018-01-12T01:57:06.184Z,77.96
2018-01-12T01:59:34.447Z,78.18
2018-01-12T02:02:03.298Z,78.33
2018-01-12T02:04:31.641Z,78.17
2018-01-12T02:06:59.908Z,77.86
2018-01-12T02:09:28.162Z,77.76
2018-01-12T02:11:56.469Z,77.80
2018-01-12T02:14:24.722Z,77.85
2018-01-12T02:16:53.072Z,77.85
2018-01-12T02:19:21.331Z,78.07
2018-01-12T02:21:49.656Z,78.11
2018-01-12T02:24:17.919Z,78.05
2018-01-12T02:26:46.199Z,78.08
2018-01-12T02:29:14.499Z,78.36
2018-01-12T02:31:42.751Z,78.54
2018-01-12T02:34:11.047Z,78.37
2018-01-12T02:36:39.371Z,78.41
2018-01-12T02:39:07.687Z,78.36
2018-01-12T02:41:35.985Z,78.19
2018-01-12T02:44:05.053Z,78.17
2018-01-12T02:46:33.332Z,78.21
2018-01-12T02:49:01.632Z,78.11
2018-01-12T02:51:29.894Z,78.18
2018-01-12T02:53:58.227Z,78.12
2018-01-12T02:56:26.516Z,77.90
2018-01-12T02:58:54.783Z,77.92
2018-01-12T03:01:23.127Z,78.04
2018-01-12T03:03:51.382Z,78.25
2018-01-12T03:06:19.686Z,78.41
2018-01-12T03:08:48.031Z,78.76
2018-01-12T03:11:16.343Z,78.81
2018-01-12T03:13:44.625Z,78.70
2018-01-12T03:16:13.040Z,78.78
2018-01-12T03:18:41.332Z,78.67
2018-01-12T03:21:09.615Z,78.46
2018-01-12T03:23:38.006Z,78.57
2018-01-12T03:26:06.239Z,78.58
2018-01-12T03:28:34.548Z,78.60
2018-01-12T03:31:02.812Z,79.01
2018-01-12T03:33:31.108Z,79.43
2018-01-12T03:35:59.389Z,79.44
2018-01-12T03:38:27.689Z,79.33
2018-01-12T03:40:55.982Z,79.09
2018-01-12T03:43:24.287Z,78.96
2018-01-12T03:45:52.570Z,78.80
2018-01-12T03:48:20.847Z,78.86
2018-01-12T03:50:49.145Z,78.79
2018-01-12T03:53:17.422Z,78.77
2018-01-12T03:55:45.739Z,78.68
2018-01-12T03:58:14.003Z,78.40
2018-01-12T04:00:42.323Z,78.44
2018-01-12T04:03:10.614Z,78.33
2018-01-12T04:05:38.914Z,78.51
2018-01-12T04:08:07.186Z,78.70
2018-01-12T04:10:35.467Z,79.14
2018-01-12T04:13:03.791Z,79.25
2018-01-12T04:15:32.054Z,79.08
2018-01-12T04:18:00.368Z,78.69
2018-01-12T04:20:28.644Z,78.55
2018-01-12T04:22:56.948Z,78.23
2018-01-12T04:25:25.227Z,78.00
2018-01-12T04:27:53.511Z,78.14
2018-01-12T04:30:21.798Z,78.07
2018-01-12T04:32:50.116Z,78.36
2018-01-12T04:35:18.390Z,78.56
2018-01-12T04:37:46.672Z,78.69
2018-01-12T04:40:14.947Z,78.87
2018-01-12T04:42:43.239Z,78.69
2018-01-12T04:45:11.514Z,78.63
2018-01-12T04:47:39.822Z,78.60
2018-01-12T04:50:08.127Z,78.49
2018-01-12T04:52:36.409Z,78.40
2018-01-12T04:55:05.012Z,78.42
2018-01-12T04:57:33.629Z,78.42
2018-01-12T05:00:01.943Z,78.45
2018-01-12T05:02:30.228Z,78.26
2018-01-12T05:04:58.524Z,78.38
2018-01-12T05:07:26.808Z,78.25
2018-01-12T05:09:55.124Z,78.41
2018-01-12T05:12:23.388Z,78.60
2018-01-12T05:14:51.701Z,78.96
2018-01-12T05:17:19.971Z,78.75
2018-01-12T05:19:48.255Z,78.70
2018-01-12T05:22:16.542Z,78.48
2018-01-12T05:24:44.836Z,78.66
2018-01-12T05:27:13.142Z,78.62
2018-01-12T05:29:41.394Z,78.47
2018-01-12T05:32:09.704Z,78.92
2018-01-12T05:34:37.984Z,78.88
2018-01-12T05:37:06.287Z,78.59
2018-01-12T05:39:34.547Z,78.87
2018-01-12T05:42:02.827Z,79.86
2018-01-12T05:44:31.092Z,80.42
2018-01-12T05:46:59.566Z,80.93
2018-01-12T05:49:27.788Z,80.44
2018-01-12T05:51:56.086Z,80.07
2018-01-12T05:54:24.357Z,79.73
2018-01-12T05:56:52.642Z,79.36
2018-01-12T05:59:21.253Z,79.12
2018-01-12T06:02:01.300Z,78.92
2018-01-12T06:04:41.254Z,78.72
2018-01-12T06:07:09.548Z,78.62
2018-01-12T06:09:37.889Z,78.87
2018-01-12T06:12:06.147Z,78.79
2018-01-12T06:14:34.440Z,78.61
2018-01-12T06:17:02.701Z,78.86
2018-01-12T06:19:30.994Z,79.21
2018-01-12T06:21:59.255Z,79.37
2018-01-12T06:24:27.566Z,79.27
2018-01-12T06:26:55.835Z,79.46
2018-01-12T06:29:24.142Z,79.45
2018-01-12T06:31:52.420Z,79.35
2018-01-12T06:34:20.706Z,79.21
2018-01-12T06:36:48.980Z,79.23
2018-01-12T06:39:17.292Z,79.67
2018-01-12T06:41:45.547Z,79.42
2018-01-12T06:44:13.856Z,79.44
2018-01-12T06:46:42.131Z,79.25
2018-01-12T06:49:10.429Z,79.13
2018-01-12T06:51:38.696Z,79.19
2018-01-12T06:54:06.958Z,79.25
2018-01-12T06:56:35.969Z,79.31
2018-01-12T06:59:04.356Z,78.71
2018-01-12T07:01:32.603Z,78.32
2018-01-12T07:04:00.883Z,78.86
2018-01-12T07:06:30.004Z,78.92
2018-01-12T07:08:58.273Z,78.65
2018-01-12T07:11:26.953Z,78.78
2018-01-12T07:13:55.220Z,78.71
2018-01-12T07:16:23.526Z,78.76
2018-01-12T07:18:51.779Z,78.88
2018-01-12T07:21:31.926Z,78.75
2018-01-12T07:24:00.252Z,78.67
2018-01-12T07:26:28.575Z,78.73
2018-01-12T07:28:56.852Z,78.18
2018-01-12T07:31:25.128Z,78.13
2018-01-12T07:33:53.411Z,77.99
2018-01-12T07:36:21.694Z,78.21
2018-01-12T07:38:50.045Z,78.42
2018-01-12T07:41:18.323Z,78.58
2018-01-12T07:43:46.635Z,78.24
2018-01-12T07:46:14.894Z,77.88
2018-01-12T07:48:43.175Z,78.05
2018-01-12T07:51:11.464Z,77.73
2018-01-12T07:53:39.794Z,77.91
2018-01-12T07:56:08.093Z,77.85
2018-01-12T07:58:36.357Z,78.01
2018-01-12T08:01:10.415Z,78.09
2018-01-12T08:03:38.678Z,78.02
2018-01-12T08:06:06.977Z,78.00
2018-01-12T08:08:35.278Z,78.31
2018-01-12T08:11:04.366Z,78.24
2018-01-12T08:13:32.693Z,78.23
2018-01-12T08:16:00.963Z,78.07
2018-01-12T08:18:29.242Z,77.82
2018-01-12T08:20:57.539Z,77.79
2018-01-12T08:23:25.985Z,77.68
2018-01-12T08:25:54.550Z,77.47
2018-01-12T08:28:22.809Z,77.53
2018-01-12T08:30:51.270Z,77.41
2018-01-12T08:33:19.531Z,77.17
2018-01-12T08:35:47.896Z,76.77
2018-01-12T08:38:16.227Z,76.69
2018-01-12T08:40:44.501Z,76.64
2018-01-12T08:43:12.808Z,76.88
2018-01-12T08:45:41.087Z,77.08
2018-01-12T08:48:09.377Z,77.03
2018-01-12T08:50:37.675Z,77.52
2018-01-12T08:53:05.963Z,77.65
2018-01-12T08:55:34.285Z,77.35
2018-01-12T08:58:02.574Z,77.09
2018-01-12T09:00:30.862Z,76.78
2018-01-12T09:02:59.213Z,76.98
2018-01-12T09:05:27.680Z,77.08
2018-01-12T09:07:55.979Z,77.05
2018-01-12T09:10:24.232Z,77.46
2018-01-12T09:12:53.447Z,77.35
2018-01-12T09:15:22.536Z,76.99
2018-01-12T09:17:50.802Z,77.26
2018-01-12T09:20:21.838Z,77.14
2018-01-12T09:22:50.081Z,77.34
2018-01-12T09:25:25.908Z,76.92
2018-01-12T09:27:54.172Z,76.42
2018-01-12T09:30:22.491Z,76.49
2018-01-12T09:32:50.762Z,76.23
2018-01-12T09:35:19.067Z,75.89
2018-01-12T09:37:59.403Z,75.51
2018-01-12T09:40:31.560Z,76.22
2018-01-12T09:42:59.848Z,76.51
2018-01-12T09:45:28.147Z,76.06
2018-01-12T09:48:11.000Z,76.16
2018-01-12T09:50:39.308Z,75.90
2018-01-12T09:53:07.567Z,75.78
2018-01-12T09:55:35.893Z,75.75
2018-01-12T09:58:04.183Z,75.52
2018-01-12T10:00:40.359Z,75.51
2018-01-12T10:03:08.666Z,75.25
2018-01-12T10:05:37.014Z,75.00
2018-01-12T10:08:05.292Z,74.83
2018-01-12T10:10:33.966Z,74.46
2018-01-12T10:13:02.283Z,74.38
2018-01-12T10:15:30.572Z,74.06
2018-01-12T10:17:58.905Z,73.59
2018-01-12T10:20:29.929Z,74.00
2018-01-12T10:22:58.265Z,73.52
2018-01-12T10:25:26.506Z,73.64
2018-01-12T10:27:55.142Z,73.81
2018-01-12T10:30:23.465Z,73.43
2018-01-12T10:33:03.608Z,73.16
2018-01-12T10:35:31.941Z,72.84
2018-01-12T10:38:00.235Z,73.20
2018-01-12T10:40:52.938Z,72.91
2018-01-12T10:45:55.258Z,72.28
2018-01-12T10:51:36.465Z,72.73
2018-01-12T10:54:04.750Z,72.60
2018-01-12T10:56:33.067Z,72.31
2018-01-12T10:59:01.375Z,72.10
2018-01-12T11:01:29.679Z,72.21
2018-01-12T11:03:58.016Z,71.78
2018-01-12T11:06:26.304Z,71.69
2018-01-12T11:08:54.650Z,71.43
2018-01-12T11:11:22.929Z,71.11
2018-01-12T11:13:51.271Z,70.68
2018-01-12T11:16:19.558Z,70.67
2018-01-12T11:18:47.883Z,70.24
2018-01-12T11:21:16.166Z,70.50
2018-01-12T11:23:44.466Z,70.01
2018-01-12T11:26:12.892Z,70.00
2018-01-12T11:28:41.174Z,70.29
2018-01-12T11:31:10.665Z,70.44
2018-01-12T11:33:38.967Z,70.55
2018-01-12T11:36:07.339Z,70.45
2018-01-12T11:38:35.615Z,70.97
2018-01-12T11:41:03.946Z,70.34
2018-01-12T11:43:32.233Z,69.98
2018-01-12T11:46:00.619Z,70.21
2018-01-12T11:48:28.894Z,69.85
2018-01-12T11:50:57.240Z,69.74
2018-01-12T11:53:25.564Z,69.60
2018-01-12T11:55:53.872Z,69.52
2018-01-12T11:58:22.155Z,68.95
2018-01-12T12:00:51.207Z,68.11
2018-01-12T12:03:19.552Z,68.09
2018-01-12T12:05:47.802Z,68.61
2018-01-12T12:08:16.147Z,68.73
2018-01-12T12:10:44.436Z,68.85
2018-01-12T12:13:12.778Z,68.14
2018-01-12T12:15:41.152Z,68.46
2018-01-12T12:18:09.514Z,69.17
2018-01-12T12:20:37.762Z,70.07
2018-01-12T12:23:06.092Z,70.06
2018-01-12T12:25:34.354Z,70.00
2018-01-12T12:28:02.672Z,70.07
2018-01-12T12:30:30.996Z,69.78
2018-01-12T12:32:59.344Z,70.11
2018-01-12T12:35:28.452Z,70.87
2018-01-12T12:37:56.745Z,71.13
2018-01-12T12:40:25.073Z,70.53
2018-01-12T12:42:53.348Z,70.14
2018-01-12T12:45:21.663Z,69.43
2018-01-12T12:47:50.040Z,68.75
2018-01-12T12:50:18.374Z,69.85
2018-01-12T12:52:46.646Z,70.39
2018-01-12T12:55:14.996Z,70.43
2018-01-12T12:57:43.271Z,71.14
2018-01-12T13:00:11.580Z,71.38
2018-01-12T13:02:39.870Z,70.31
2018-01-12T13:05:08.217Z,70.35
2018-01-12T13:07:36.516Z,70.29
2018-01-12T13:10:05.183Z,70.90
2018-01-12T13:12:33.527Z,70.85
2018-01-12T13:15:03.753Z,70.24
2018-01-12T13:17:32.111Z,69.72
2018-01-12T13:20:00.405Z,69.61
2018-01-12T13:22:28.724Z,69.70
2018-01-12T13:24:56.995Z,69.46
2018-01-12T13:27:25.321Z,68.70
2018-01-12T13:29:54.179Z,68.96
2018-01-12T13:32:22.513Z,68.71
2018-01-12T13:34:50.799Z,69.14
2018-01-12T13:37:19.941Z,70.14
2018-01-12T13:39:48.231Z,69.69
2018-01-12T13:42:16.820Z,69.24
2018-01-12T13:44:45.217Z,69.07
2018-01-12T13:47:13.524Z,68.72
2018-01-12T13:49:41.815Z,68.86
2018-01-12T13:52:10.071Z,68.54
2018-01-12T13:54:38.382Z,68.81
2018-01-12T13:57:06.694Z,68.94
2018-01-12T13:59:34.988Z,68.44
2018-01-12T14:02:03.263Z,68.74
2018-01-12T14:04:31.591Z,68.40
2018-01-12T14:06:59.894Z,68.93
2018-01-12T14:09:28.247Z,68.69
2018-01-12T14:11:56.548Z,68.92
2018-01-12T14:14:24.828Z,69.32
2018-01-12T14:16:53.156Z,69.74
2018-01-12T14:19:21.444Z,70.16
2018-01-12T14:21:49.718Z,69.84
2018-01-12T14:24:17.994Z,69.94
2018-01-12T14:26:46.380Z,69.68
2018-01-12T14:29:14.593Z,69.78
2018-01-12T14:31:42.917Z,69.71
2018-01-12T14:34:11.198Z,69.45
2018-01-12T14:36:39.507Z,69.32
2018-01-12T14:39:07.802Z,69.23
2018-01-12T14:41:36.109Z,69.35
2018-01-12T14:44:05.137Z,68.84
2018-01-12T14:46:33.483Z,68.58
2018-01-12T14:49:01.775Z,68.90
2018-01-12T14:51:30.121Z,68.61
2018-01-12T14:53:58.448Z,68.80
2018-01-12T14:56:26.743Z,68.76
2018-01-12T14:58:55.043Z,68.88
2018-01-12T15:01:23.314Z,69.06
2018-01-12T15:03:51.636Z,68.80
2018-01-12T15:06:19.928Z,68.96
2018-01-12T15:08:48.251Z,68.46
2018-01-12T15:11:16.542Z,68.60
2018-01-12T15:13:44.862Z,68.69
2018-01-12T15:16:13.180Z,68.65
2018-01-12T15:18:41.472Z,68.34
2018-01-12T15:21:09.848Z,68.15
2018-01-12T15:23:38.135Z,68.06
2018-01-12T15:26:06.439Z,67.88
2018-01-12T15:28:34.716Z,67.68
2018-01-12T15:31:03.031Z,67.31
2018-01-12T15:33:31.487Z,67.01
2018-01-12T15:36:00.021Z,67.29
2018-01-12T15:38:28.324Z,67.27
2018-01-12T15:40:56.623Z,67.33
2018-01-12T15:43:24.890Z,67.56
2018-01-12T15:45:53.294Z,67.65
2018-01-12T15:48:21.556Z,67.86
2018-01-12T15:50:50.171Z,67.69
2018-01-12T15:53:18.534Z,68.00
2018-01-12T15:55:46.872Z,68.13
2018-01-12T15:58:15.159Z,68.29
2018-01-12T16:00:43.472Z,68.35
2018-01-12T16:03:11.746Z,68.48
2018-01-12T16:05:40.089Z,68.84
2018-01-12T16:08:08.449Z,69.03
2018-01-12T16:10:36.752Z,69.04
2018-01-12T16:13:05.062Z,69.44
2018-01-12T16:15:33.763Z,69.68
2018-01-12T16:18:02.075Z,69.92
2018-01-12T16:20:30.387Z,69.98
2018-01-12T16:22:58.709Z,69.69
2018-01-12T16:25:27.004Z,69.61
2018-01-12T16:27:55.369Z,69.84
2018-01-12T16:30:23.659Z,69.43
2018-01-12T16:32:51.962Z,69.53
2018-01-12T16:35:20.238Z,69.80
2018-01-12T16:37:48.551Z,69.85
2018-01-12T16:40:17.589Z,70.06
2018-01-12T16:42:45.890Z,70.20
2018-01-12T16:45:14.231Z,70.28
2018-01-12T16:47:43.304Z,70.54
2018-01-12T16:50:11.621Z,70.43
2018-01-12T16:52:39.901Z,70.61
2018-01-12T16:55:08.231Z,70.74
2018-01-12T16:57:36.824Z,70.86
2018-01-12T17:00:05.504Z,70.69
2018-01-12T17:02:33.787Z,70.81
2018-01-12T17:05:02.719Z,71.32
2018-01-12T17:07:30.986Z,71.33
2018-01-12T17:09:59.303Z,71.22
2018-01-12T17:12:27.651Z,70.71
2018-01-12T17:14:55.956Z,71.09
2018-01-12T17:17:24.284Z,71.14
2018-01-12T17:19:52.536Z,71.12
2018-01-12T17:22:20.879Z,71.27
2018-01-12T17:24:49.168Z,71.22
2018-01-12T17:27:17.490Z,70.74
2018-01-12T17:29:45.774Z,70.60
2018-01-12T17:32:14.098Z,71.03
2018-01-12T17:34:42.383Z,71.04
2018-01-12T17:37:10.701Z,71.29
2018-01-12T17:39:38.991Z,71.43
2018-01-12T17:42:07.797Z,71.19
2018-01-12T17:44:36.381Z,71.18
2018-01-12T17:47:05.013Z,71.34
2018-01-12T17:49:33.474Z,71.27
2018-01-12T17:52:01.741Z,71.12
2018-01-12T17:54:30.034Z,71.21
2018-01-12T17:56:58.488Z,71.13
2018-01-12T17:59:26.742Z,70.87
2018-01-12T18:01:55.026Z,70.88
2018-01-12T18:04:23.383Z,71.05
2018-01-12T18:06:51.717Z,70.20
2018-01-12T18:09:19.995Z,70.73
2018-01-12T18:11:48.375Z,70.80
2018-01-12T18:14:16.685Z,70.67
2018-01-12T18:16:44.984Z,70.78
2018-01-12T18:19:13.270Z,70.86
2018-01-12T18:21:41.619Z,71.04
2018-01-12T18:24:09.917Z,70.67
2018-01-12T18:26:38.211Z,70.77
2018-01-12T18:29:06.492Z,70.81
2018-01-12T18:31:34.832Z,70.80
2018-01-12T18:34:03.112Z,70.88
2018-01-12T18:36:31.415Z,70.66
2018-01-12T18:38:59.723Z,70.32
2018-01-12T18:41:28.010Z,70.68
2018-01-12T18:43:56.299Z,70.80
2018-01-12T18:46:24.563Z,70.83
2018-01-12T18:48:52.900Z,71.01
2018-01-12T18:51:21.269Z,70.83
2018-01-12T18:53:49.549Z,70.92
2018-01-12T18:56:17.805Z,70.86
2018-01-12T18:58:46.444Z,70.95
2018-01-12T19:01:14.749Z,70.76
2018-01-12T19:03:43.045Z,71.05
2018-01-12T19:06:11.326Z,71.33
2018-01-12T19:08:39.608Z,70.96
2018-01-12T19:11:07.894Z,70.84
2018-01-12T19:13:36.243Z,70.76
2018-01-12T19:16:04.554Z,70.86
2018-01-12T19:18:32.840Z,70.84
2018-01-12T19:21:01.143Z,70.60
2018-01-12T19:23:29.461Z,69.54
2018-01-12T19:25:57.726Z,69.83
2018-01-12T19:28:26.020Z,69.91
2018-01-12T19:30:54.365Z,69.92
2018-01-12T19:33:22.673Z,69.68
2018-01-12T19:35:50.970Z,69.82
2018-01-12T19:38:19.233Z,69.76
2018-01-12T19:40:47.539Z,70.29
2018-01-12T19:43:16.718Z,70.29
2018-01-12T19:45:44.963Z,70.36
2018-01-12T19:48:13.268Z,70.36
2018-01-12T19:50:41.604Z,70.39
2018-01-12T19:53:10.199Z,70.75
2018-01-12T19:55:38.474Z,70.88
2018-01-12T19:58:06.819Z,70.98
2018-01-12T20:00:35.098Z,70.94
2018-01-12T20:03:03.387Z,71.16
2018-01-12T20:05:31.691Z,70.79
2018-01-12T20:07:59.976Z,70.81
2018-01-12T20:10:28.254Z,70.89
2018-01-12T20:12:56.550Z,70.85
2018-01-12T20:15:24.875Z,70.38
2018-01-12T20:17:53.176Z,69.91
2018-01-12T20:20:21.495Z,69.80
2018-01-12T20:22:50.102Z,70.21
2018-01-12T20:25:18.955Z,70.14
2018-01-12T20:27:47.251Z,70.03
2018-01-12T20:30:15.534Z,70.07
2018-01-12T20:32:43.844Z,70.03
2018-01-12T20:35:12.133Z,70.24
2018-01-12T20:37:40.414Z,70.44
2018-01-12T20:40:08.706Z,70.21
2018-01-12T20:42:36.982Z,70.39
2018-01-12T20:45:05.271Z,70.56
2018-01-12T20:47:33.603Z,70.31
2018-01-12T20:50:01.874Z,70.38
2018-01-12T20:52:30.177Z,70.99
2018-01-12T20:54:58.423Z,70.98
2018-01-12T20:57:26.703Z,71.00
2018-01-12T20:59:55.016Z,70.96
2018-01-12T21:02:23.289Z,70.79
2018-01-12T21:04:52.452Z,70.79
2018-01-12T21:07:20.708Z,70.72
2018-01-12T21:09:49.042Z,70.66
2018-01-12T21:12:18.254Z,70.65
2018-01-12T21:14:46.577Z,70.64
2018-01-12T21:17:14.855Z,70.58
2018-01-12T21:19:43.138Z,70.28
2018-01-12T21:22:11.443Z,70.22
2018-01-12T21:24:39.752Z,69.87
2018-01-12T21:27:08.043Z,69.62
2018-01-12T21:29:36.617Z,69.79
2018-01-12T21:32:04.935Z,69.66
2018-01-12T21:34:33.248Z,69.62
2018-01-12T21:37:01.549Z,69.70
2018-01-12T21:39:29.832Z,69.52
2018-01-12T21:41:58.133Z,69.37
2018-01-12T21:44:26.421Z,69.20
2018-01-12T21:46:54.731Z,68.58
2018-01-12T21:49:23.039Z,68.92
2018-01-12T21:51:51.502Z,68.87
2018-01-12T21:54:19.828Z,68.45
2018-01-12T21:56:48.123Z,69.16
2018-01-12T21:59:16.426Z,69.29
2018-01-12T22:01:44.723Z,69.57
2018-01-12T22:04:13.028Z,69.57
2018-01-12T22:06:41.316Z,69.94
2018-01-12T22:09:09.622Z,69.66
2018-01-12T22:11:37.923Z,69.45
2018-01-12T22:14:06.213Z,69.46
2018-01-12T22:16:34.519Z,69.43
2018-01-12T22:19:02.818Z,69.60
2018-01-12T22:21:31.090Z,69.44
2018-01-12T22:23:59.375Z,69.58
2018-01-12T22:26:27.682Z,68.52
2018-01-12T22:28:57.008Z,68.47
2018-01-12T22:31:25.306Z,68.84
2018-01-12T22:33:53.566Z,67.95
2018-01-12T22:36:21.929Z,68.25
2018-01-12T22:38:50.248Z,68.61
2018-01-12T22:41:18.529Z,68.64
2018-01-12T22:43:46.833Z,68.68
2018-01-12T22:46:15.125Z,68.78
2018-01-12T22:48:44.070Z,69.08
2018-01-12T22:51:12.418Z,68.86
2018-01-12T22:53:40.709Z,68.65
2018-01-12T22:56:08.988Z,68.93
2018-01-12T22:58:37.267Z,68.52
2018-01-12T23:01:05.582Z,68.84
2018-01-12T23:03:33.889Z,69.09
2018-01-12T23:06:02.188Z,68.92
2018-01-12T23:08:30.511Z,68.58
2018-01-12T23:10:58.834Z,68.05
2018-01-12T23:13:27.127Z,68.45
2018-01-12T23:15:55.399Z,68.56
2018-01-12T23:18:23.698Z,68.81
2018-01-12T23:20:52.360Z,68.81
2018-01-12T23:23:20.637Z,68.84
2018-01-12T23:25:48.926Z,68.74
2018-01-12T23:28:17.251Z,68.52
2018-01-12T23:30:47.010Z,68.39
2018-01-12T23:33:15.906Z,68.17
2018-01-12T23:35:44.871Z,68.80
2018-01-12T23:38:13.166Z,68.96
2018-01-12T23:40:41.460Z,68.70
2018-01-12T23:43:09.792Z,68.28
2018-01-12T23:45:38.389Z,68.19
2018-01-12T23:48:06.676Z,68.40
2018-01-12T23:50:34.966Z,68.08
2018-01-12T23:53:03.324Z,68.38
2018-01-12T23:55:31.978Z,68.75
2018-01-12T23:58:00.295Z,68.56
